sensor_id;sensor_type;location;lat;lon;timestamp;P1;P2;P0
62778;PMS7003;48821;48.796;2.396;2022-12-10T00:00:04;58.75;44.00;30.50
62778;PMS7003;48821;48.796;2.396;2022-12-10T00:01:18;59.25;43.50;23.25
62778;PMS7003;48821;48.796;2.396;2022-12-10T00:02:29;65.75;45.00;28.00
62778;PMS7003;48821;48.796;2.396;2022-12-10T00:03:40;60.00;45.50;27.75
62778;PMS7003;48821;48.796;2.396;2022-12-10T00:04:50;58.75;45.75;28.00
62778;PMS7003;48821;48.796;2.396;2022-12-10T00:06:03;52.75;40.00;23.50
62778;PMS7003;48821;48.796;2.396;2022-12-10T00:07:15;58.00;46.25;28.00
62778;PMS7003;48821;48.796;2.396;2022-12-10T00:08:25;58.75;46.00;27.25
62778;PMS7003;48821;48.796;2.396;2022-12-10T00:09:35;62.25;43.25;27.50
62778;PMS7003;48821;48.796;2.396;2022-12-10T00:10:46;60.50;43.50;27.25
62778;PMS7003;48821;48.796;2.396;2022-12-10T00:11:56;60.00;44.25;28.00
62778;PMS7003;48821;48.796;2.396;2022-12-10T00:13:07;53.75;40.00;25.75
62778;PMS7003;48821;48.796;2.396;2022-12-10T00:14:17;55.50;45.00;28.50
62778;PMS7003;48821;48.796;2.396;2022-12-10T00:15:27;56.25;40.50;26.50
62778;PMS7003;48821;48.796;2.396;2022-12-10T00:16:38;50.50;38.25;22.25
62778;PMS7003;48821;48.796;2.396;2022-12-10T00:17:48;49.50;40.00;26.00
62778;PMS7003;48821;48.796;2.396;2022-12-10T00:18:58;48.00;39.00;23.50
62778;PMS7003;48821;48.796;2.396;2022-12-10T00:20:09;50.75;38.75;25.00
62778;PMS7003;48821;48.796;2.396;2022-12-10T00:21:21;49.00;35.75;26.75
62778;PMS7003;48821;48.796;2.396;2022-12-10T00:22:33;48.00;41.75;26.25
62778;PMS7003;48821;48.796;2.396;2022-12-10T00:23:44;64.25;42.25;27.00
62778;PMS7003;48821;48.796;2.396;2022-12-10T00:24:55;53.50;41.50;26.00
62778;PMS7003;48821;48.796;2.396;2022-12-10T00:26:06;54.00;39.50;25.25
62778;PMS7003;48821;48.796;2.396;2022-12-10T00:27:21;57.50;44.25;26.00
62778;PMS7003;48821;48.796;2.396;2022-12-10T00:28:31;52.75;40.50;23.00
62778;PMS7003;48821;48.796;2.396;2022-12-10T00:29:43;43.75;38.25;25.25
62778;PMS7003;48821;48.796;2.396;2022-12-10T00:30:53;55.25;41.00;25.25
62778;PMS7003;48821;48.796;2.396;2022-12-10T00:32:04;55.50;41.25;26.00
62778;PMS7003;48821;48.796;2.396;2022-12-10T00:33:15;50.75;35.75;22.00
62778;PMS7003;48821;48.796;2.396;2022-12-10T00:34:25;50.25;41.00;26.50
62778;PMS7003;48821;48.796;2.396;2022-12-10T00:35:36;51.00;36.75;24.75
62778;PMS7003;48821;48.796;2.396;2022-12-10T00:36:47;56.75;44.25;27.50
62778;PMS7003;48821;48.796;2.396;2022-12-10T00:37:59;49.50;39.50;25.00
62778;PMS7003;48821;48.796;2.396;2022-12-10T00:39:09;54.50;41.00;25.25
62778;PMS7003;48821;48.796;2.396;2022-12-10T00:40:22;51.50;38.25;25.00
62778;PMS7003;48821;48.796;2.396;2022-12-10T00:41:32;52.25;41.00;25.25
62778;PMS7003;48821;48.796;2.396;2022-12-10T00:42:43;55.50;43.00;26.50
62778;PMS7003;48821;48.796;2.396;2022-12-10T00:43:53;46.50;35.25;21.25
62778;PMS7003;48821;48.796;2.396;2022-12-10T00:45:04;59.75;45.25;26.00
62778;PMS7003;48821;48.796;2.396;2022-12-10T00:46:15;60.25;45.25;27.50
62778;PMS7003;48821;48.796;2.396;2022-12-10T00:47:27;53.50;40.25;25.25
62778;PMS7003;48821;48.796;2.396;2022-12-10T00:48:38;63.25;44.75;24.00
62778;PMS7003;48821;48.796;2.396;2022-12-10T00:49:49;59.75;45.25;26.50
62778;PMS7003;48821;48.796;2.396;2022-12-10T00:51:00;50.25;41.75;26.00
62778;PMS7003;48821;48.796;2.396;2022-12-10T00:52:15;55.00;41.75;26.25
62778;PMS7003;48821;48.796;2.396;2022-12-10T00:53:26;55.25;39.25;26.00
62778;PMS7003;48821;48.796;2.396;2022-12-10T00:54:37;49.75;41.00;23.75
62778;PMS7003;48821;48.796;2.396;2022-12-10T00:55:47;57.25;42.75;25.25
62778;PMS7003;48821;48.796;2.396;2022-12-10T00:56:57;54.50;42.00;25.25
62778;PMS7003;48821;48.796;2.396;2022-12-10T00:58:08;52.50;38.50;23.00
62778;PMS7003;48821;48.796;2.396;2022-12-10T00:59:18;57.25;43.00;26.25
62778;PMS7003;48821;48.796;2.396;2022-12-10T01:00:28;56.75;42.75;26.25
62778;PMS7003;48821;48.796;2.396;2022-12-10T01:01:40;50.75;40.00;25.25
62778;PMS7003;48821;48.796;2.396;2022-12-10T01:02:52;57.25;41.75;25.25
62778;PMS7003;48821;48.796;2.396;2022-12-10T01:04:04;61.00;45.50;26.25
62778;PMS7003;48821;48.796;2.396;2022-12-10T01:05:22;64.25;47.00;28.25
62778;PMS7003;48821;48.796;2.396;2022-12-10T01:06:36;56.00;45.75;26.25
62778;PMS7003;48821;48.796;2.396;2022-12-10T01:07:50;53.00;41.75;26.00
62778;PMS7003;48821;48.796;2.396;2022-12-10T01:09:04;55.25;42.50;27.50
62778;PMS7003;48821;48.796;2.396;2022-12-10T01:10:16;57.50;44.50;26.75
62778;PMS7003;48821;48.796;2.396;2022-12-10T01:11:30;56.25;44.50;28.00
62778;PMS7003;48821;48.796;2.396;2022-12-10T01:12:43;57.25;43.25;25.75
62778;PMS7003;48821;48.796;2.396;2022-12-10T01:13:55;52.50;42.25;25.00
62778;PMS7003;48821;48.796;2.396;2022-12-10T01:15:05;56.00;43.50;25.75
62778;PMS7003;48821;48.796;2.396;2022-12-10T01:16:17;58.00;42.00;25.00
62778;PMS7003;48821;48.796;2.396;2022-12-10T01:17:28;58.25;44.00;25.00
62778;PMS7003;48821;48.796;2.396;2022-12-10T01:18:38;50.00;39.75;26.75
62778;PMS7003;48821;48.796;2.396;2022-12-10T01:19:49;53.75;43.00;25.75
62778;PMS7003;48821;48.796;2.396;2022-12-10T01:21:00;54.00;42.75;26.50
62778;PMS7003;48821;48.796;2.396;2022-12-10T01:22:11;54.00;43.50;27.00
62778;PMS7003;48821;48.796;2.396;2022-12-10T01:23:22;59.75;44.00;27.50
62778;PMS7003;48821;48.796;2.396;2022-12-10T01:24:32;61.50;46.00;26.75
62778;PMS7003;48821;48.796;2.396;2022-12-10T01:25:42;59.75;46.75;27.25
62778;PMS7003;48821;48.796;2.396;2022-12-10T01:26:53;60.25;44.25;26.50
62778;PMS7003;48821;48.796;2.396;2022-12-10T01:28:05;56.50;44.00;26.25
62778;PMS7003;48821;48.796;2.396;2022-12-10T01:29:15;58.75;42.50;25.00
62778;PMS7003;48821;48.796;2.396;2022-12-10T01:30:26;57.75;44.00;26.25
62778;PMS7003;48821;48.796;2.396;2022-12-10T01:31:36;60.50;45.25;26.50
62778;PMS7003;48821;48.796;2.396;2022-12-10T01:32:47;59.00;44.50;26.50
62778;PMS7003;48821;48.796;2.396;2022-12-10T01:33:58;61.25;43.25;26.25
62778;PMS7003;48821;48.796;2.396;2022-12-10T01:35:09;59.25;45.50;27.25
62778;PMS7003;48821;48.796;2.396;2022-12-10T01:36:23;56.50;45.25;26.25
62778;PMS7003;48821;48.796;2.396;2022-12-10T01:37:36;55.25;44.50;27.25
62778;PMS7003;48821;48.796;2.396;2022-12-10T01:38:46;58.50;45.50;26.75
62778;PMS7003;48821;48.796;2.396;2022-12-10T01:39:57;58.00;45.75;26.00
62778;PMS7003;48821;48.796;2.396;2022-12-10T01:41:09;61.50;46.25;26.50
62778;PMS7003;48821;48.796;2.396;2022-12-10T01:42:24;63.50;45.50;28.75
62778;PMS7003;48821;48.796;2.396;2022-12-10T01:45:05;61.50;46.00;29.00
62778;PMS7003;48821;48.796;2.396;2022-12-10T01:46:18;60.25;45.50;29.50
62778;PMS7003;48821;48.796;2.396;2022-12-10T01:47:30;58.00;45.25;30.00
62778;PMS7003;48821;48.796;2.396;2022-12-10T01:48:41;63.50;48.50;29.00
62778;PMS7003;48821;48.796;2.396;2022-12-10T01:49:52;62.50;48.00;30.75
62778;PMS7003;48821;48.796;2.396;2022-12-10T01:51:02;54.00;41.00;25.00
62778;PMS7003;48821;48.796;2.396;2022-12-10T01:52:12;55.50;45.25;30.00
62778;PMS7003;48821;48.796;2.396;2022-12-10T01:53:23;62.50;50.00;30.50
62778;PMS7003;48821;48.796;2.396;2022-12-10T01:54:34;53.50;44.00;27.25
62778;PMS7003;48821;48.796;2.396;2022-12-10T01:55:48;60.25;47.25;30.25
62778;PMS7003;48821;48.796;2.396;2022-12-10T01:58:10;62.75;46.50;27.50
62778;PMS7003;48821;48.796;2.396;2022-12-10T01:59:22;63.25;47.50;30.75
62778;PMS7003;48821;48.796;2.396;2022-12-10T02:00:36;64.25;48.25;31.00
62778;PMS7003;48821;48.796;2.396;2022-12-10T02:02:11;60.25;47.75;27.50
62778;PMS7003;48821;48.796;2.396;2022-12-10T02:03:34;63.25;46.75;30.00
62778;PMS7003;48821;48.796;2.396;2022-12-10T02:04:55;70.75;49.25;30.25
62778;PMS7003;48821;48.796;2.396;2022-12-10T02:07:54;67.50;50.75;32.00
62778;PMS7003;48821;48.796;2.396;2022-12-10T02:09:28;62.75;49.00;30.25
62778;PMS7003;48821;48.796;2.396;2022-12-10T02:13:41;64.50;47.75;31.75
62778;PMS7003;48821;48.796;2.396;2022-12-10T02:16:08;64.50;51.00;32.00
62778;PMS7003;48821;48.796;2.396;2022-12-10T02:17:28;63.50;50.50;31.75
62778;PMS7003;48821;48.796;2.396;2022-12-10T02:18:58;61.00;46.50;29.75
62778;PMS7003;48821;48.796;2.396;2022-12-10T02:20:40;58.75;45.25;28.50
62778;PMS7003;48821;48.796;2.396;2022-12-10T02:21:56;65.25;48.75;31.25
62778;PMS7003;48821;48.796;2.396;2022-12-10T02:23:16;63.75;49.75;30.25
62778;PMS7003;48821;48.796;2.396;2022-12-10T02:24:33;67.75;51.00;30.75
62778;PMS7003;48821;48.796;2.396;2022-12-10T02:28:36;56.50;42.25;26.00
62778;PMS7003;48821;48.796;2.396;2022-12-10T02:30:00;66.00;50.00;30.75
62778;PMS7003;48821;48.796;2.396;2022-12-10T02:31:13;63.25;48.00;29.50
62778;PMS7003;48821;48.796;2.396;2022-12-10T02:32:32;63.00;49.00;30.25
62778;PMS7003;48821;48.796;2.396;2022-12-10T02:33:46;61.75;46.75;29.00
62778;PMS7003;48821;48.796;2.396;2022-12-10T02:35:00;62.00;46.25;28.50
62778;PMS7003;48821;48.796;2.396;2022-12-10T02:36:17;61.00;48.75;29.50
62778;PMS7003;48821;48.796;2.396;2022-12-10T02:37:31;61.50;46.25;30.00
62778;PMS7003;48821;48.796;2.396;2022-12-10T02:38:45;60.25;47.25;31.25
62778;PMS7003;48821;48.796;2.396;2022-12-10T02:40:00;59.75;46.25;30.00
62778;PMS7003;48821;48.796;2.396;2022-12-10T02:41:18;56.50;45.00;29.50
62778;PMS7003;48821;48.796;2.396;2022-12-10T02:42:32;60.75;46.50;28.00
62778;PMS7003;48821;48.796;2.396;2022-12-10T02:43:47;61.75;47.25;30.00
62778;PMS7003;48821;48.796;2.396;2022-12-10T02:45:01;53.75;44.50;29.50
62778;PMS7003;48821;48.796;2.396;2022-12-10T02:46:13;60.00;47.50;29.75
62778;PMS7003;48821;48.796;2.396;2022-12-10T02:47:25;59.75;45.75;28.25
62778;PMS7003;48821;48.796;2.396;2022-12-10T02:48:36;60.00;46.00;27.25
62778;PMS7003;48821;48.796;2.396;2022-12-10T02:49:47;61.00;47.00;30.75
62778;PMS7003;48821;48.796;2.396;2022-12-10T02:51:03;57.00;44.25;25.00
62778;PMS7003;48821;48.796;2.396;2022-12-10T02:52:14;57.50;45.00;27.75
62778;PMS7003;48821;48.796;2.396;2022-12-10T02:53:27;54.75;43.75;29.00
62778;PMS7003;48821;48.796;2.396;2022-12-10T02:54:44;60.75;45.00;25.25
62778;PMS7003;48821;48.796;2.396;2022-12-10T02:56:04;52.25;39.75;27.25
62778;PMS7003;48821;48.796;2.396;2022-12-10T03:00:17;61.25;47.50;29.75
62778;PMS7003;48821;48.796;2.396;2022-12-10T03:04:32;60.00;45.00;27.00
62778;PMS7003;48821;48.796;2.396;2022-12-10T03:05:56;60.50;46.00;28.00
62778;PMS7003;48821;48.796;2.396;2022-12-10T03:07:17;56.75;43.75;28.00
62778;PMS7003;48821;48.796;2.396;2022-12-10T03:10:17;56.50;45.00;28.00
62778;PMS7003;48821;48.796;2.396;2022-12-10T03:11:36;57.00;40.25;24.00
62778;PMS7003;48821;48.796;2.396;2022-12-10T03:12:54;58.50;44.00;27.50
62778;PMS7003;48821;48.796;2.396;2022-12-10T03:14:14;58.75;45.25;28.00
62778;PMS7003;48821;48.796;2.396;2022-12-10T03:15:30;58.25;43.75;26.25
62778;PMS7003;48821;48.796;2.396;2022-12-10T03:16:46;56.25;42.50;24.75
62778;PMS7003;48821;48.796;2.396;2022-12-10T03:18:03;57.75;42.50;26.00
62778;PMS7003;48821;48.796;2.396;2022-12-10T03:19:17;52.25;42.00;25.00
62778;PMS7003;48821;48.796;2.396;2022-12-10T03:20:31;54.50;42.50;25.00
62778;PMS7003;48821;48.796;2.396;2022-12-10T03:21:44;53.00;42.00;25.50
62778;PMS7003;48821;48.796;2.396;2022-12-10T03:22:57;53.25;41.25;24.75
62778;PMS7003;48821;48.796;2.396;2022-12-10T03:24:10;55.25;41.00;23.00
62778;PMS7003;48821;48.796;2.396;2022-12-10T03:25:23;57.00;41.75;26.25
62778;PMS7003;48821;48.796;2.396;2022-12-10T03:26:35;53.25;40.00;23.75
62778;PMS7003;48821;48.796;2.396;2022-12-10T03:27:48;54.25;42.75;26.50
62778;PMS7003;48821;48.796;2.396;2022-12-10T03:29:05;61.00;42.75;26.00
62778;PMS7003;48821;48.796;2.396;2022-12-10T03:30:18;57.00;44.00;26.75
62778;PMS7003;48821;48.796;2.396;2022-12-10T03:31:28;56.75;41.50;25.00
62778;PMS7003;48821;48.796;2.396;2022-12-10T03:32:40;54.25;39.75;24.75
62778;PMS7003;48821;48.796;2.396;2022-12-10T03:33:53;56.75;41.00;26.75
62778;PMS7003;48821;48.796;2.396;2022-12-10T03:35:04;58.00;41.75;26.00
62778;PMS7003;48821;48.796;2.396;2022-12-10T03:36:17;57.75;42.25;23.75
62778;PMS7003;48821;48.796;2.396;2022-12-10T03:37:29;51.50;39.25;25.75
62778;PMS7003;48821;48.796;2.396;2022-12-10T03:38:40;57.75;42.25;25.00
62778;PMS7003;48821;48.796;2.396;2022-12-10T03:39:53;57.50;44.25;26.75
62778;PMS7003;48821;48.796;2.396;2022-12-10T03:41:03;55.75;41.50;26.00
62778;PMS7003;48821;48.796;2.396;2022-12-10T03:42:14;53.00;41.00;24.75
62778;PMS7003;48821;48.796;2.396;2022-12-10T03:43:25;54.00;38.25;25.00
62778;PMS7003;48821;48.796;2.396;2022-12-10T03:44:36;54.25;41.00;25.00
62778;PMS7003;48821;48.796;2.396;2022-12-10T03:45:48;45.25;38.00;24.25
62778;PMS7003;48821;48.796;2.396;2022-12-10T03:46:58;56.00;42.25;26.00
62778;PMS7003;48821;48.796;2.396;2022-12-10T03:48:09;56.25;40.00;23.75
62778;PMS7003;48821;48.796;2.396;2022-12-10T03:49:20;54.75;41.75;25.00
62778;PMS7003;48821;48.796;2.396;2022-12-10T03:50:30;54.00;41.50;25.00
62778;PMS7003;48821;48.796;2.396;2022-12-10T03:51:40;53.75;41.00;25.00
62778;PMS7003;48821;48.796;2.396;2022-12-10T03:52:51;52.25;41.50;26.25
62778;PMS7003;48821;48.796;2.396;2022-12-10T03:54:01;43.50;36.75;24.50
62778;PMS7003;48821;48.796;2.396;2022-12-10T03:55:11;51.50;41.75;24.25
62778;PMS7003;48821;48.796;2.396;2022-12-10T03:56:22;47.50;37.50;23.00
62778;PMS7003;48821;48.796;2.396;2022-12-10T03:57:32;48.75;37.75;23.25
62778;PMS7003;48821;48.796;2.396;2022-12-10T03:58:43;51.00;37.50;23.75
62778;PMS7003;48821;48.796;2.396;2022-12-10T03:59:54;49.75;39.75;24.75
62778;PMS7003;48821;48.796;2.396;2022-12-10T04:01:04;49.50;41.75;25.50
62778;PMS7003;48821;48.796;2.396;2022-12-10T04:02:14;51.25;39.75;25.75
62778;PMS7003;48821;48.796;2.396;2022-12-10T04:03:25;55.75;40.00;24.75
62778;PMS7003;48821;48.796;2.396;2022-12-10T04:04:35;47.75;36.00;20.50
62778;PMS7003;48821;48.796;2.396;2022-12-10T04:05:45;51.00;39.00;25.00
62778;PMS7003;48821;48.796;2.396;2022-12-10T04:06:56;40.75;36.25;25.25
62778;PMS7003;48821;48.796;2.396;2022-12-10T04:08:06;43.25;34.50;21.75
62778;PMS7003;48821;48.796;2.396;2022-12-10T04:09:16;51.75;39.75;24.25
62778;PMS7003;48821;48.796;2.396;2022-12-10T04:10:27;41.00;35.00;21.25
62778;PMS7003;48821;48.796;2.396;2022-12-10T04:11:37;52.00;38.75;24.50
62778;PMS7003;48821;48.796;2.396;2022-12-10T04:12:48;54.75;41.00;26.00
62778;PMS7003;48821;48.796;2.396;2022-12-10T04:14:18;58.25;41.00;24.75
62778;PMS7003;48821;48.796;2.396;2022-12-10T04:15:47;52.50;38.00;23.00
62778;PMS7003;48821;48.796;2.396;2022-12-10T04:17:16;53.00;36.25;22.25
62778;PMS7003;48821;48.796;2.396;2022-12-10T04:18:26;43.25;35.25;23.00
62778;PMS7003;48821;48.796;2.396;2022-12-10T04:19:37;51.50;39.00;23.50
62778;PMS7003;48821;48.796;2.396;2022-12-10T04:20:47;52.75;38.00;24.00
62778;PMS7003;48821;48.796;2.396;2022-12-10T04:22:24;44.25;35.00;23.50
62778;PMS7003;48821;48.796;2.396;2022-12-10T04:23:52;45.25;37.50;23.25
62778;PMS7003;48821;48.796;2.396;2022-12-10T04:25:21;46.25;35.50;22.50
62778;PMS7003;48821;48.796;2.396;2022-12-10T04:26:50;41.75;35.00;21.75
62778;PMS7003;48821;48.796;2.396;2022-12-10T04:28:04;48.25;36.25;23.50
62778;PMS7003;48821;48.796;2.396;2022-12-10T04:29:14;40.25;33.75;21.00
62778;PMS7003;48821;48.796;2.396;2022-12-10T04:30:24;48.75;38.50;23.50
62778;PMS7003;48821;48.796;2.396;2022-12-10T04:31:35;44.50;37.25;22.75
62778;PMS7003;48821;48.796;2.396;2022-12-10T04:32:45;45.25;37.75;23.50
62778;PMS7003;48821;48.796;2.396;2022-12-10T04:33:55;40.25;32.50;20.25
62778;PMS7003;48821;48.796;2.396;2022-12-10T04:35:06;47.00;36.75;21.50
62778;PMS7003;48821;48.796;2.396;2022-12-10T04:36:17;49.25;38.00;21.25
62778;PMS7003;48821;48.796;2.396;2022-12-10T04:37:27;38.25;34.50;23.25
62778;PMS7003;48821;48.796;2.396;2022-12-10T04:38:38;42.25;34.50;22.75
62778;PMS7003;48821;48.796;2.396;2022-12-10T04:39:49;49.00;37.25;22.75
62778;PMS7003;48821;48.796;2.396;2022-12-10T04:41:00;51.75;37.00;23.00
62778;PMS7003;48821;48.796;2.396;2022-12-10T04:42:11;38.50;31.75;21.00
62778;PMS7003;48821;48.796;2.396;2022-12-10T04:43:21;33.50;26.25;16.25
62778;PMS7003;48821;48.796;2.396;2022-12-10T04:44:32;40.00;32.00;21.50
62778;PMS7003;48821;48.796;2.396;2022-12-10T04:45:42;44.50;36.00;23.00
62778;PMS7003;48821;48.796;2.396;2022-12-10T04:46:53;46.25;34.50;19.75
62778;PMS7003;48821;48.796;2.396;2022-12-10T04:48:03;38.00;31.25;19.00
62778;PMS7003;48821;48.796;2.396;2022-12-10T04:49:14;41.75;35.75;22.75
62778;PMS7003;48821;48.796;2.396;2022-12-10T04:50:25;54.25;38.00;22.50
62778;PMS7003;48821;48.796;2.396;2022-12-10T04:51:35;42.50;35.25;22.50
62778;PMS7003;48821;48.796;2.396;2022-12-10T04:52:45;35.75;26.00;22.00
62778;PMS7003;48821;48.796;2.396;2022-12-10T04:53:56;35.75;30.00;19.75
62778;PMS7003;48821;48.796;2.396;2022-12-10T04:55:07;41.25;33.00;20.50
62778;PMS7003;48821;48.796;2.396;2022-12-10T04:56:17;41.50;31.75;19.75
62778;PMS7003;48821;48.796;2.396;2022-12-10T04:57:28;44.25;34.50;21.50
62778;PMS7003;48821;48.796;2.396;2022-12-10T04:58:38;42.00;34.50;22.25
62778;PMS7003;48821;48.796;2.396;2022-12-10T04:59:49;43.00;33.75;21.25
62778;PMS7003;48821;48.796;2.396;2022-12-10T05:01:02;35.25;30.50;19.25
62778;PMS7003;48821;48.796;2.396;2022-12-10T05:02:14;44.00;31.50;17.00
62778;PMS7003;48821;48.796;2.396;2022-12-10T05:03:24;32.75;27.00;16.25
62778;PMS7003;48821;48.796;2.396;2022-12-10T05:04:34;40.00;31.00;19.50
62778;PMS7003;48821;48.796;2.396;2022-12-10T05:05:45;32.25;28.75;16.75
62778;PMS7003;48821;48.796;2.396;2022-12-10T05:06:55;43.50;34.75;20.50
62778;PMS7003;48821;48.796;2.396;2022-12-10T05:08:05;39.50;31.25;18.00
62778;PMS7003;48821;48.796;2.396;2022-12-10T05:09:16;33.75;30.75;17.75
62778;PMS7003;48821;48.796;2.396;2022-12-10T05:10:27;39.50;33.00;20.50
62778;PMS7003;48821;48.796;2.396;2022-12-10T05:11:37;38.50;30.75;17.00
62778;PMS7003;48821;48.796;2.396;2022-12-10T05:12:48;36.50;30.00;18.50
62778;PMS7003;48821;48.796;2.396;2022-12-10T05:13:59;32.00;25.25;16.00
62778;PMS7003;48821;48.796;2.396;2022-12-10T05:15:10;32.75;28.00;17.25
62778;PMS7003;48821;48.796;2.396;2022-12-10T05:16:21;37.25;31.25;18.50
62778;PMS7003;48821;48.796;2.396;2022-12-10T05:17:33;27.00;23.75;15.00
62778;PMS7003;48821;48.796;2.396;2022-12-10T05:18:43;29.25;23.75;15.75
62778;PMS7003;48821;48.796;2.396;2022-12-10T05:19:54;33.00;27.00;19.00
62778;PMS7003;48821;48.796;2.396;2022-12-10T05:21:06;27.50;24.50;14.00
62778;PMS7003;48821;48.796;2.396;2022-12-10T05:22:19;37.50;32.00;18.25
62778;PMS7003;48821;48.796;2.396;2022-12-10T05:23:50;33.50;28.25;17.25
62778;PMS7003;48821;48.796;2.396;2022-12-10T05:25:01;31.00;26.00;16.25
62778;PMS7003;48821;48.796;2.396;2022-12-10T05:26:13;36.00;28.75;16.25
62778;PMS7003;48821;48.796;2.396;2022-12-10T05:27:24;36.25;27.50;17.25
62778;PMS7003;48821;48.796;2.396;2022-12-10T05:28:38;32.25;27.75;17.00
62778;PMS7003;48821;48.796;2.396;2022-12-10T05:29:56;32.25;26.25;16.50
62778;PMS7003;48821;48.796;2.396;2022-12-10T05:31:17;28.75;23.50;12.75
62778;PMS7003;48821;48.796;2.396;2022-12-10T05:32:27;26.75;25.50;15.25
62778;PMS7003;48821;48.796;2.396;2022-12-10T05:33:38;37.25;28.75;15.75
62778;PMS7003;48821;48.796;2.396;2022-12-10T05:34:48;37.00;24.75;16.00
62778;PMS7003;48821;48.796;2.396;2022-12-10T05:36:00;42.25;28.75;17.00
62778;PMS7003;48821;48.796;2.396;2022-12-10T05:37:11;30.00;25.00;17.50
62778;PMS7003;48821;48.796;2.396;2022-12-10T05:38:22;29.25;23.50;15.75
62778;PMS7003;48821;48.796;2.396;2022-12-10T05:39:32;27.00;24.75;15.50
62778;PMS7003;48821;48.796;2.396;2022-12-10T05:40:42;31.25;25.00;16.75
62778;PMS7003;48821;48.796;2.396;2022-12-10T05:41:53;31.00;25.00;16.25
62778;PMS7003;48821;48.796;2.396;2022-12-10T05:43:04;33.75;27.25;17.25
62778;PMS7003;48821;48.796;2.396;2022-12-10T05:44:14;29.50;26.25;17.00
62778;PMS7003;48821;48.796;2.396;2022-12-10T05:45:25;27.25;20.25;17.00
62778;PMS7003;48821;48.796;2.396;2022-12-10T05:46:35;31.50;25.50;16.50
62778;PMS7003;48821;48.796;2.396;2022-12-10T05:47:45;29.00;25.25;13.25
62778;PMS7003;48821;48.796;2.396;2022-12-10T05:48:56;32.00;26.50;16.50
62778;PMS7003;48821;48.796;2.396;2022-12-10T05:50:07;29.25;21.25;14.50
62778;PMS7003;48821;48.796;2.396;2022-12-10T05:51:19;34.50;27.50;17.50
62778;PMS7003;48821;48.796;2.396;2022-12-10T05:52:31;31.00;28.25;16.50
62778;PMS7003;48821;48.796;2.396;2022-12-10T05:53:42;30.25;24.75;16.00
62778;PMS7003;48821;48.796;2.396;2022-12-10T05:54:52;31.50;25.50;15.00
62778;PMS7003;48821;48.796;2.396;2022-12-10T05:56:04;29.00;22.25;12.75
62778;PMS7003;48821;48.796;2.396;2022-12-10T05:57:16;28.50;24.00;15.75
62778;PMS7003;48821;48.796;2.396;2022-12-10T05:58:27;33.00;29.00;18.75
62778;PMS7003;48821;48.796;2.396;2022-12-10T05:59:39;30.75;23.00;16.25
62778;PMS7003;48821;48.796;2.396;2022-12-10T06:00:49;36.00;31.50;18.00
62778;PMS7003;48821;48.796;2.396;2022-12-10T06:01:59;33.75;28.25;18.00
62778;PMS7003;48821;48.796;2.396;2022-12-10T06:03:10;39.75;29.50;19.50
62778;PMS7003;48821;48.796;2.396;2022-12-10T06:04:20;32.75;26.75;17.50
62778;PMS7003;48821;48.796;2.396;2022-12-10T06:05:40;40.25;29.25;19.75
62778;PMS7003;48821;48.796;2.396;2022-12-10T06:06:50;40.00;31.50;20.75
62778;PMS7003;48821;48.796;2.396;2022-12-10T06:08:01;34.75;29.25;19.00
62778;PMS7003;48821;48.796;2.396;2022-12-10T06:09:12;39.25;28.25;18.25
62778;PMS7003;48821;48.796;2.396;2022-12-10T06:10:23;36.50;30.50;18.00
62778;PMS7003;48821;48.796;2.396;2022-12-10T06:11:34;29.75;25.25;17.00
62778;PMS7003;48821;48.796;2.396;2022-12-10T06:12:44;38.25;32.50;17.25
62778;PMS7003;48821;48.796;2.396;2022-12-10T06:13:58;35.25;26.75;17.00
62778;PMS7003;48821;48.796;2.396;2022-12-10T06:15:09;33.00;27.75;16.50
62778;PMS7003;48821;48.796;2.396;2022-12-10T06:16:20;42.50;29.50;15.00
62778;PMS7003;48821;48.796;2.396;2022-12-10T06:17:30;42.25;30.00;17.50
62778;PMS7003;48821;48.796;2.396;2022-12-10T06:18:41;33.00;28.25;16.75
62778;PMS7003;48821;48.796;2.396;2022-12-10T06:19:51;33.50;29.25;17.00
62778;PMS7003;48821;48.796;2.396;2022-12-10T06:21:03;35.25;28.50;19.25
62778;PMS7003;48821;48.796;2.396;2022-12-10T06:22:14;32.25;27.00;15.75
62778;PMS7003;48821;48.796;2.396;2022-12-10T06:23:24;32.25;24.25;16.50
62778;PMS7003;48821;48.796;2.396;2022-12-10T06:24:35;32.25;28.25;17.00
62778;PMS7003;48821;48.796;2.396;2022-12-10T06:25:45;31.75;27.25;20.00
62778;PMS7003;48821;48.796;2.396;2022-12-10T06:26:55;33.25;25.50;17.25
62778;PMS7003;48821;48.796;2.396;2022-12-10T06:28:06;31.00;26.50;17.00
62778;PMS7003;48821;48.796;2.396;2022-12-10T06:29:17;23.25;20.75;10.25
62778;PMS7003;48821;48.796;2.396;2022-12-10T06:30:27;29.00;22.50;13.75
62778;PMS7003;48821;48.796;2.396;2022-12-10T06:31:38;26.75;22.00;16.00
62778;PMS7003;48821;48.796;2.396;2022-12-10T06:32:48;27.75;25.50;16.25
62778;PMS7003;48821;48.796;2.396;2022-12-10T06:33:58;31.75;25.50;16.00
62778;PMS7003;48821;48.796;2.396;2022-12-10T06:35:09;28.50;25.00;15.25
62778;PMS7003;48821;48.796;2.396;2022-12-10T06:36:20;33.00;26.75;16.00
62778;PMS7003;48821;48.796;2.396;2022-12-10T06:37:31;32.50;30.50;17.75
62778;PMS7003;48821;48.796;2.396;2022-12-10T06:38:41;30.75;25.75;16.75
62778;PMS7003;48821;48.796;2.396;2022-12-10T06:39:52;21.25;18.75;15.50
62778;PMS7003;48821;48.796;2.396;2022-12-10T06:41:07;27.25;23.75;17.00
62778;PMS7003;48821;48.796;2.396;2022-12-10T06:42:19;29.50;26.00;16.75
62778;PMS7003;48821;48.796;2.396;2022-12-10T06:43:30;23.25;22.50;11.50
62778;PMS7003;48821;48.796;2.396;2022-12-10T06:44:40;34.25;27.25;13.25
62778;PMS7003;48821;48.796;2.396;2022-12-10T06:45:51;33.50;28.00;17.75
62778;PMS7003;48821;48.796;2.396;2022-12-10T06:47:01;36.25;26.75;15.25
62778;PMS7003;48821;48.796;2.396;2022-12-10T06:48:11;33.25;24.75;17.50
62778;PMS7003;48821;48.796;2.396;2022-12-10T06:49:22;30.50;24.50;16.00
62778;PMS7003;48821;48.796;2.396;2022-12-10T06:50:32;30.50;26.00;16.00
62778;PMS7003;48821;48.796;2.396;2022-12-10T06:51:42;32.75;24.50;16.75
62778;PMS7003;48821;48.796;2.396;2022-12-10T06:52:53;26.25;19.75;11.25
62778;PMS7003;48821;48.796;2.396;2022-12-10T06:54:04;33.50;25.00;17.25
62778;PMS7003;48821;48.796;2.396;2022-12-10T06:55:14;37.00;26.25;17.00
62778;PMS7003;48821;48.796;2.396;2022-12-10T06:56:25;37.25;26.25;16.00
62778;PMS7003;48821;48.796;2.396;2022-12-10T06:57:35;24.75;20.75;15.00
62778;PMS7003;48821;48.796;2.396;2022-12-10T06:58:46;26.75;25.25;15.25
62778;PMS7003;48821;48.796;2.396;2022-12-10T06:59:57;31.50;21.00;15.25
62778;PMS7003;48821;48.796;2.396;2022-12-10T07:01:17;26.00;22.25;13.25
62778;PMS7003;48821;48.796;2.396;2022-12-10T07:02:32;35.00;26.50;17.25
62778;PMS7003;48821;48.796;2.396;2022-12-10T07:03:43;26.50;24.50;15.75
62778;PMS7003;48821;48.796;2.396;2022-12-10T07:04:57;30.25;24.25;15.00
62778;PMS7003;48821;48.796;2.396;2022-12-10T07:06:07;37.75;26.25;17.00